Sawyer County Airport Hayward US
ICAO: KHYR
IATA: HYR
Category: Medium
Scheduled Services: No

Elevation: 1216 ft
TransAlt. 18000 ft.

Airport Communications:
MINNEAPOLIS CNTR:126.45
ASOS:113.4
GREEN BAY RDO:113.4
CTAF/UNICOM:122.8

KHYR Zoom In..

Runways:

(A) RW 02 length 5002 ft width 100 ft
LOC 108.50 / hdg 25

(B) RW 16 length 1090 ft width 110 ft
LOC 108.50 / hdg 163

(C) RW 20 length 5002 ft width 100 ft
LOC 108.50 / hdg 205

(D) RW 34 length 1090 ft width 110 ft
LOC 108.50 / hdg 343

Location; KHYR
Day. 01 / Time. 16.29 Zulu
* Altimeter: 29.93
* Temperature: 18° c. 64.4°f.
* Wind from: 170° Speed 08 kn.
Dewpoint: 14° c.
Visibility: 8 Statute Miles.
Clouds: Scattered 2600 ft.
Clouds: Broken 9000 ft.
Clouds: Broken 12000 ft.

KHYR 011629Z AUTO 17008KT 8SM -TSRA SCT026 BKN090 BKN120 18/14 A2993 RMK AO2 LTG DSNT W-NE RAB21 P0000 T01780139


Wind From 170°
Speed 08 kn.

 
 
jpsmedia worldairports.se 2020   terms of use